Time;durP1;ratioP1;P1;durP2;ratioP2;P2;SDS_P1;SDS_P2;PMS_P1;PMS_P2;Temp;Humidity;BMP_temperature;BMP_pressure;BME280_temperature;BME280_humidity;BME280_pressure;Samples;Min_cycle;Max_cycle;Signal;HPM_P1;HPM_P2
2023/06/30 00:00:25;;;;;;;14.07;8.02;;;20.40;86.10;;;;;;5015572;28;20022;-72
2023/06/30 00:02:51;;;;;;;13.50;7.47;;;20.40;86.30;;;;;;5016433;28;20034;-72
2023/06/30 00:05:18;;;;;;;13.77;7.95;;;20.40;86.30;;;;;;5015769;28;20113;-72
2023/06/30 00:07:44;;;;;;;17.00;8.95;;;20.40;86.60;;;;;;5007467;28;20045;-71
2023/06/30 00:10:10;;;;;;;16.35;8.93;;;20.40;86.50;;;;;;5012110;28;20482;-72
2023/06/30 00:12:36;;;;;;;11.88;7.82;;;20.30;86.60;;;;;;5018258;28;20042;-72
2023/06/30 00:15:02;;;;;;;14.10;8.40;;;20.30;87.10;;;;;;5016134;28;20311;-72
2023/06/30 00:17:30;;;;;;;10.77;7.07;;;20.30;87.20;;;;;;5016103;28;20303;-72
2023/06/30 00:19:59;;;;;;;12.85;7.70;;;20.30;87.20;;;;;;5015193;28;20335;-72
2023/06/30 00:22:25;;;;;;;13.95;7.93;;;20.20;87.90;;;;;;5012741;28;20030;-72
2023/06/30 00:24:58;;;;;;;14.15;7.18;;;20.20;87.60;;;;;;5014161;28;20141;-72
2023/06/30 00:27:24;;;;;;;13.27;6.80;;;20.20;88.40;;;;;;5015331;28;20108;-72
2023/06/30 00:29:53;;;;;;;12.20;7.07;;;20.10;88.80;;;;;;5019657;28;20172;-74
2023/06/30 00:32:18;;;;;;;12.85;7.10;;;20.00;89.20;;;;;;5027285;28;20034;-72
2023/06/30 00:34:44;;;;;;;12.02;7.10;;;20.00;89.20;;;;;;5014408;28;20099;-72
2023/06/30 00:37:09;;;;;;;11.00;6.30;;;19.80;89.20;;;;;;5013876;28;20430;-72
2023/06/30 00:39:35;;;;;;;11.90;6.80;;;19.70;89.50;;;;;;5015732;28;20104;-72
2023/06/30 00:42:00;;;;;;;11.80;7.28;;;19.70;89.80;;;;;;5027240;28;20041;-72
2023/06/30 00:44:26;;;;;;;11.45;7.65;;;19.60;90.10;;;;;;5029885;28;20025;-72
2023/06/30 00:46:52;;;;;;;10.73;6.30;;;19.50;90.20;;;;;;5015057;28;21768;-71
2023/06/30 00:49:18;;;;;;;11.65;7.03;;;19.50;90.30;;;;;;5015953;28;20026;-72
2023/06/30 00:51:44;;;;;;;13.27;7.70;;;19.50;90.60;;;;;;5013678;28;20041;-72
2023/06/30 00:54:10;;;;;;;13.20;7.60;;;19.50;90.10;;;;;;5015604;28;20034;-72
2023/06/30 00:56:39;;;;;;;10.60;7.22;;;19.40;90.30;;;;;;5015555;28;20034;-72
2023/06/30 00:59:04;;;;;;;12.75;8.02;;;19.40;90.60;;;;;;5015558;28;20033;-72
2023/06/30 01:01:51;;;;;;;12.23;7.32;;;19.40;90.70;;;;;;5015825;28;20113;-73
2023/06/30 01:04:23;;;;;;;12.23;7.88;;;19.30;90.90;;;;;;5015152;28;20057;-72
2023/06/30 01:07:14;;;;;;;16.58;8.38;;;19.30;91.10;;;;;;5014913;28;20142;-72
2023/06/30 01:10:07;;;;;;;11.85;7.18;;;19.20;91.30;;;;;;5004554;28;20068;-72
2023/06/30 01:12:33;;;;;;;13.52;8.43;;;19.20;91.40;;;;;;5003948;28;20070;-72
2023/06/30 01:15:01;;;;;;;13.07;8.20;;;19.20;91.50;;;;;;4998356;28;20034;-72
2023/06/30 01:17:27;;;;;;;12.07;7.00;;;19.20;91.70;;;;;;5015588;28;20029;-72
2023/06/30 01:19:55;;;;;;;14.32;8.30;;;19.10;91.90;;;;;;5014521;28;20053;-72
2023/06/30 01:22:39;;;;;;;15.73;7.82;;;19.10;92.10;;;;;;5012606;28;20022;-72
2023/06/30 01:25:09;;;;;;;15.52;7.47;;;19.00;92.40;;;;;;5014191;28;20497;-72
2023/06/30 01:27:36;;;;;;;15.38;7.78;;;18.90;92.70;;;;;;5015371;28;20026;-72
2023/06/30 01:30:05;;;;;;;12.98;8.27;;;18.80;93.00;;;;;;5011775;28;20022;-73
2023/06/30 01:32:31;;;;;;;12.27;8.18;;;18.80;93.30;;;;;;4995521;28;20112;-73
2023/06/30 01:34:57;;;;;;;13.60;8.30;;;18.70;93.40;;;;;;5016400;28;20448;-72
2023/06/30 01:37:22;;;;;;;13.95;8.80;;;18.70;93.40;;;;;;4995922;28;20026;-72
2023/06/30 01:39:48;;;;;;;12.10;7.85;;;18.60;93.50;;;;;;5017485;28;20030;-72
2023/06/30 01:42:14;;;;;;;14.93;8.57;;;18.60;93.40;;;;;;5018630;28;20052;-72
2023/06/30 01:44:40;;;;;;;13.43;8.82;;;18.60;93.70;;;;;;5018118;28;20113;-72
2023/06/30 01:47:09;;;;;;;15.55;8.43;;;18.50;93.80;;;;;;5001478;28;20500;-72
2023/06/30 01:49:42;;;;;;;14.60;8.35;;;18.50;93.90;;;;;;5018690;28;20029;-72
2023/06/30 01:52:07;;;;;;;12.23;8.77;;;18.50;94.00;;;;;;5016692;28;20065;-74
2023/06/30 01:54:33;;;;;;;15.50;9.35;;;18.50;94.00;;;;;;5018307;28;20442;-72
2023/06/30 01:56:58;;;;;;;14.65;9.48;;;18.50;94.10;;;;;;5017855;28;20033;-72
2023/06/30 01:59:24;;;;;;;16.35;9.30;;;18.50;94.00;;;;;;5030576;28;20041;-73
2023/06/30 02:01:49;;;;;;;14.63;9.40;;;18.60;93.90;;;;;;5018523;28;20105;-72
2023/06/30 02:04:15;;;;;;;14.63;8.95;;;18.60;93.90;;;;;;5024311;28;20092;-71
2023/06/30 02:06:43;;;;;;;16.35;8.73;;;18.50;93.80;;;;;;5036733;28;20053;-72
2023/06/30 02:09:08;;;;;;;13.45;9.07;;;18.60;93.90;;;;;;5016505;28;20116;-72
2023/06/30 02:11:34;;;;;;;18.27;9.00;;;18.60;93.90;;;;;;5016356;28;20212;-74
2023/06/30 02:14:00;;;;;;;14.43;8.60;;;18.60;94.00;;;;;;5016356;28;20037;-72
2023/06/30 02:16:25;;;;;;;13.80;8.90;;;18.60;93.80;;;;;;5000697;28;20430;-72
2023/06/30 02:18:54;;;;;;;13.15;8.63;;;18.60;93.70;;;;;;5018295;28;20076;-73
2023/06/30 02:21:20;;;;;;;15.23;8.95;;;18.60;93.70;;;;;;5016027;28;20453;-72
2023/06/30 02:23:46;;;;;;;14.00;9.05;;;18.60;93.90;;;;;;5017116;28;20030;-73
2023/06/30 02:26:17;;;;;;;16.65;10.10;;;18.70;94.10;;;;;;5018004;28;20022;-72
2023/06/30 02:28:43;;;;;;;14.40;10.02;;;18.70;94.20;;;;;;5017719;28;20033;-72
2023/06/30 02:31:11;;;;;;;15.98;9.63;;;18.60;94.30;;;;;;5017071;28;20030;-71
2023/06/30 02:33:37;;;;;;;16.88;9.90;;;18.60;94.20;;;;;;5015900;28;20026;-72
2023/06/30 02:36:03;;;;;;;14.98;9.40;;;18.70;94.20;;;;;;5015885;28;20026;-72
2023/06/30 02:38:29;;;;;;;14.10;9.43;;;18.70;94.30;;;;;;5014214;28;20036;-72
2023/06/30 02:40:55;;;;;;;16.13;10.48;;;18.70;94.50;;;;;;5015192;28;20149;-72
2023/06/30 02:43:20;;;;;;;15.10;9.50;;;18.60;94.60;;;;;;5014629;28;20458;-73
2023/06/30 02:45:46;;;;;;;15.65;10.23;;;18.60;94.70;;;;;;5015648;28;20081;-73
2023/06/30 02:48:11;;;;;;;16.02;10.63;;;18.60;94.80;;;;;;5016461;28;20438;-72
2023/06/30 02:50:37;;;;;;;17.67;10.95;;;18.60;94.80;;;;;;5012167;28;20492;-72
2023/06/30 02:53:03;;;;;;;17.33;10.73;;;18.60;94.80;;;;;;5015521;28;20030;-72
2023/06/30 02:55:28;;;;;;;17.25;10.88;;;18.60;94.80;;;;;;5013925;28;20041;-72
2023/06/30 02:57:54;;;;;;;17.48;11.18;;;18.70;94.80;;;;;;5015282;28;20026;-72
2023/06/30 03:00:20;;;;;;;16.85;10.88;;;18.70;94.80;;;;;;5014391;28;20064;-72
2023/06/30 03:02:45;;;;;;;16.42;10.57;;;18.70;94.80;;;;;;5015178;28;20026;-72
2023/06/30 03:05:11;;;;;;;16.98;11.07;;;18.70;94.90;;;;;;5014022;28;20053;-72
2023/06/30 03:07:36;;;;;;;23.35;12.25;;;18.70;94.90;;;;;;4997661;28;20031;-73
2023/06/30 03:10:03;;;;;;;17.85;11.38;;;18.70;95.00;;;;;;5015796;28;20056;-72
2023/06/30 03:12:28;;;;;;;16.58;11.27;;;18.60;95.00;;;;;;5013287;28;20042;-72
2023/06/30 03:14:54;;;;;;;17.55;11.25;;;18.60;95.10;;;;;;4999176;28;20041;-72
2023/06/30 03:17:20;;;;;;;18.85;11.32;;;18.60;95.10;;;;;;5012631;28;20048;-72
2023/06/30 03:19:45;;;;;;;16.17;11.90;;;18.60;95.10;;;;;;5016021;28;20041;-72
2023/06/30 03:22:11;;;;;;;17.88;11.90;;;18.60;95.30;;;;;;5010642;28;20093;-72
2023/06/30 03:24:37;;;;;;;20.80;13.20;;;18.50;95.10;;;;;;5012712;28;20159;-72
2023/06/30 03:27:03;;;;;;;20.67;13.77;;;18.30;94.30;;;;;;5012493;28;20022;-72
2023/06/30 03:29:29;;;;;;;22.38;13.35;;;18.10;93.00;;;;;;5015667;28;20033;-72
2023/06/30 03:31:54;;;;;;;22.25;13.38;;;18.00;92.60;;;;;;5016554;28;20034;-72
2023/06/30 03:34:20;;;;;;;24.15;15.13;;;17.80;90.80;;;;;;5015884;28;20081;-72
2023/06/30 03:36:45;;;;;;;21.52;14.18;;;17.70;89.30;;;;;;5012244;28;20041;-73
2023/06/30 03:39:11;;;;;;;25.85;14.93;;;17.60;88.60;;;;;;5013074;28;20102;-73
2023/06/30 03:41:37;;;;;;;21.30;14.35;;;17.40;86.30;;;;;;4996676;28;20133;-73
2023/06/30 03:44:05;;;;;;;23.92;14.68;;;17.30;85.10;;;;;;5015811;28;20035;-73
2023/06/30 03:46:37;;;;;;;22.98;16.00;;;17.20;83.30;;;;;;5015406;28;20033;-74
2023/06/30 03:49:02;;;;;;;22.38;14.65;;;17.10;81.80;;;;;;5016133;28;20342;-77
2023/06/30 03:51:28;;;;;;;21.70;15.00;;;17.10;79.80;;;;;;4997159;28;20026;-79
2023/06/30 03:53:54;;;;;;;24.20;14.98;;;17.00;79.10;;;;;;4997402;28;20029;-78
2023/06/30 03:56:19;;;;;;;24.88;17.20;;;16.90;77.00;;;;;;4998430;28;20042;-77
2023/06/30 03:58:45;;;;;;;26.13;17.50;;;16.90;75.20;;;;;;5003514;28;20042;-75
2023/06/30 04:01:21;;;;;;;24.42;14.93;;;16.80;74.10;;;;;;5012423;28;20068;-73
2023/06/30 04:03:51;;;;;;;24.40;16.23;;;16.70;72.30;;;;;;5020159;28;20053;-72
2023/06/30 04:06:19;;;;;;;25.30;16.50;;;16.80;70.00;;;;;;5025591;28;20057;-73
2023/06/30 04:08:45;;;;;;;26.58;17.58;;;16.80;69.00;;;;;;5011756;28;20104;-74
2023/06/30 04:11:11;;;;;;;23.73;16.40;;;16.80;69.20;;;;;;4995205;28;20109;-74
2023/06/30 04:13:39;;;;;;;27.40;19.33;;;16.80;67.70;;;;;;5010801;28;20034;-75
2023/06/30 04:16:05;;;;;;;28.92;18.25;;;16.80;65.90;;;;;;5014455;28;20091;-72
2023/06/30 04:18:31;;;;;;;24.70;16.60;;;16.70;66.20;;;;;;5013413;28;20417;-72
2023/06/30 04:20:56;;;;;;;26.33;17.92;;;16.70;65.00;;;;;;4994321;28;20048;-72
2023/06/30 04:23:22;;;;;;;25.92;17.42;;;16.70;64.90;;;;;;5013725;28;20025;-72
2023/06/30 04:25:48;;;;;;;29.63;18.15;;;16.70;66.30;;;;;;4986755;28;20054;-73
2023/06/30 04:28:13;;;;;;;24.13;16.95;;;16.60;67.50;;;;;;5018959;28;20022;-74
2023/06/30 04:30:39;;;;;;;27.23;20.08;;;16.60;68.30;;;;;;5016698;28;20037;-74
2023/06/30 04:33:04;;;;;;;23.48;16.30;;;16.60;68.40;;;;;;5014901;28;20040;-74
2023/06/30 04:35:30;;;;;;;37.10;24.58;;;16.60;66.50;;;;;;5014768;28;20058;-74
2023/06/30 04:37:55;;;;;;;45.45;21.25;;;16.70;66.00;;;;;;5015960;28;20069;-74
2023/06/30 04:40:21;;;;;;;36.08;20.95;;;16.70;65.50;;;;;;5016874;28;20410;-75
2023/06/30 04:42:46;;;;;;;33.50;22.25;;;16.60;66.20;;;;;;5011957;28;20041;-74
2023/06/30 04:45:12;;;;;;;30.17;19.85;;;16.50;65.60;;;;;;5004235;28;20036;-74
2023/06/30 04:47:38;;;;;;;28.35;19.70;;;16.40;65.00;;;;;;5011409;28;20034;-73
2023/06/30 04:50:04;;;;;;;30.60;21.60;;;16.50;63.60;;;;;;5008761;28;20026;-74
2023/06/30 04:52:31;;;;;;;29.20;19.65;;;16.50;62.70;;;;;;5012703;28;20085;-74
2023/06/30 04:54:57;;;;;;;28.92;19.17;;;16.50;63.70;;;;;;5013985;28;20061;-74
2023/06/30 04:57:22;;;;;;;27.42;19.05;;;16.40;64.00;;;;;;5013271;28;20038;-73
2023/06/30 04:59:52;;;;;;;28.00;19.60;;;16.40;62.90;;;;;;5013261;28;20104;-74
2023/06/30 05:02:18;;;;;;;28.70;20.85;;;16.50;62.20;;;;;;5011221;28;20022;-73
2023/06/30 05:04:44;;;;;;;39.70;25.80;;;16.50;62.00;;;;;;5012904;28;20097;-72
2023/06/30 05:07:10;;;;;;;29.58;20.90;;;16.60;61.70;;;;;;5008058;28;20018;-73
2023/06/30 05:09:36;;;;;;;38.40;27.48;;;16.60;61.40;;;;;;5013035;28;20030;-74
2023/06/30 05:12:02;;;;;;;29.10;20.98;;;16.60;61.70;;;;;;4996352;28;20081;-73
2023/06/30 05:14:28;;;;;;;29.83;22.30;;;16.60;60.90;;;;;;5015161;28;20129;-73
2023/06/30 05:16:56;;;;;;;27.25;19.88;;;16.60;61.20;;;;;;5007219;28;20105;-73
2023/06/30 05:19:22;;;;;;;33.17;25.17;;;16.60;61.00;;;;;;5012915;28;20026;-73
2023/06/30 05:21:51;;;;;;;25.23;18.95;;;16.60;60.80;;;;;;5016128;28;20085;-73
2023/06/30 05:24:17;;;;;;;27.10;20.90;;;16.60;60.60;;;;;;5018350;28;20021;-73
2023/06/30 05:26:42;;;;;;;27.25;19.80;;;16.70;60.50;;;;;;5009339;28;20064;-72
2023/06/30 05:29:09;;;;;;;26.80;20.50;;;16.60;61.10;;;;;;4999975;28;20112;-73
2023/06/30 05:31:35;;;;;;;27.10;19.50;;;16.60;60.70;;;;;;5016157;28;20030;-72
2023/06/30 05:34:01;;;;;;;21.48;15.90;;;16.60;60.90;;;;;;5017916;28;20038;-72
2023/06/30 05:36:30;;;;;;;23.55;16.67;;;16.60;61.10;;;;;;5016183;28;20041;-73
2023/06/30 05:38:56;;;;;;;22.90;16.23;;;16.60;62.00;;;;;;5016268;28;20025;-72
2023/06/30 05:41:22;;;;;;;27.10;17.48;;;16.50;61.90;;;;;;5018348;28;20038;-73
2023/06/30 05:43:47;;;;;;;24.90;17.83;;;16.50;62.10;;;;;;5018803;28;20315;-73
2023/06/30 05:46:13;;;;;;;23.30;17.15;;;16.60;62.20;;;;;;5035098;28;20314;-73
2023/06/30 05:48:38;;;;;;;30.88;21.77;;;16.60;62.30;;;;;;5015379;28;20025;-74
2023/06/30 05:51:04;;;;;;;26.17;18.77;;;16.70;62.30;;;;;;5011910;28;20074;-74
2023/06/30 05:53:30;;;;;;;25.50;18.05;;;16.70;61.60;;;;;;5018971;28;20418;-72
2023/06/30 05:55:55;;;;;;;25.75;19.05;;;16.80;62.40;;;;;;5014988;28;20033;-72
2023/06/30 05:58:23;;;;;;;21.52;14.65;;;16.80;62.80;;;;;;5016280;28;20314;-72
2023/06/30 06:00:49;;;;;;;21.23;16.60;;;16.70;63.80;;;;;;5018533;28;20026;-72
2023/06/30 06:03:14;;;;;;;20.35;15.40;;;16.60;63.40;;;;;;5016548;28;20029;-72
2023/06/30 06:05:40;;;;;;;24.27;16.35;;;16.60;63.00;;;;;;5016724;28;20037;-73
2023/06/30 06:08:05;;;;;;;20.58;13.63;;;16.60;63.70;;;;;;5018522;28;20021;-73
2023/06/30 06:10:31;;;;;;;19.30;13.68;;;16.60;64.30;;;;;;5017317;28;20021;-73
2023/06/30 06:12:56;;;;;;;20.00;14.30;;;16.50;64.30;;;;;;5018664;28;20414;-73
2023/06/30 06:15:22;;;;;;;20.90;14.30;;;16.50;63.70;;;;;;5018133;28;20419;-72
2023/06/30 06:17:47;;;;;;;18.45;14.00;;;16.50;64.10;;;;;;5018202;28;20030;-73
2023/06/30 06:20:13;;;;;;;22.83;15.02;;;16.60;63.70;;;;;;5008871;28;20033;-73
2023/06/30 06:22:38;;;;;;;21.65;14.30;;;16.60;64.30;;;;;;5016921;28;20100;-72
2023/06/30 06:25:04;;;;;;;20.13;15.57;;;16.50;64.70;;;;;;5017860;28;20022;-72
2023/06/30 06:27:34;;;;;;;24.15;16.90;;;16.60;63.90;;;;;;5011673;28;20061;-72
2023/06/30 06:30:00;;;;;;;21.15;13.55;;;16.60;64.50;;;;;;5020903;28;20374;-72
2023/06/30 06:32:25;;;;;;;19.50;14.15;;;16.50;65.80;;;;;;5016728;28;20056;-73
2023/06/30 06:34:51;;;;;;;17.92;12.07;;;16.40;66.50;;;;;;5011880;28;20030;-73
2023/06/30 06:37:16;;;;;;;19.85;13.27;;;16.30;67.60;;;;;;4997150;28;20419;-73
2023/06/30 06:39:42;;;;;;;18.75;14.18;;;16.20;68.40;;;;;;4998257;28;20037;-73
2023/06/30 06:42:08;;;;;;;20.27;14.40;;;16.30;67.60;;;;;;5013899;28;20374;-73
2023/06/30 06:44:33;;;;;;;18.10;14.57;;;16.30;66.80;;;;;;5015662;28;20036;-73
2023/06/30 06:47:36;;;;;;;25.67;16.48;;;16.30;67.10;;;;;;5015492;28;20034;-73
2023/06/30 06:50:03;;;;;;;23.25;17.58;;;16.40;65.20;;;;;;5011037;28;20041;-73
2023/06/30 06:52:28;;;;;;;20.25;13.70;;;16.50;64.70;;;;;;5005049;28;20056;-73
2023/06/30 06:54:54;;;;;;;26.13;17.42;;;16.50;65.20;;;;;;5011483;28;20084;-73
2023/06/30 06:57:19;;;;;;;20.60;14.68;;;16.50;64.50;;;;;;5013550;28;20033;-73
2023/06/30 06:59:45;;;;;;;18.95;14.38;;;16.60;64.90;;;;;;5017363;28;20030;-73
2023/06/30 07:02:11;;;;;;;18.23;13.68;;;16.50;66.30;;;;;;5017676;28;20327;-72
2023/06/30 07:04:36;;;;;;;20.63;14.93;;;16.50;65.50;;;;;;5017521;28;20033;-73
2023/06/30 07:07:02;;;;;;;22.38;14.65;;;16.60;65.20;;;;;;5008836;28;20040;-73
2023/06/30 07:09:27;;;;;;;17.80;13.77;;;16.70;65.70;;;;;;5005966;28;20037;-72
2023/06/30 07:11:53;;;;;;;19.02;13.38;;;16.70;66.10;;;;;;5017182;28;20029;-72
2023/06/30 07:14:20;;;;;;;20.40;15.02;;;16.80;65.50;;;;;;5013674;28;20038;-72
2023/06/30 07:16:45;;;;;;;19.92;13.65;;;16.90;66.80;;;;;;4997729;28;20089;-72
2023/06/30 07:19:11;;;;;;;18.58;13.52;;;17.00;66.30;;;;;;4997708;28;20355;-72
2023/06/30 07:21:36;;;;;;;21.83;13.68;;;17.00;68.30;;;;;;4982817;28;20480;-73
2023/06/30 07:24:02;;;;;;;21.05;13.52;;;17.00;69.70;;;;;;5009529;28;20097;-73
2023/06/30 07:26:31;;;;;;;15.93;11.02;;;17.00;71.50;;;;;;4997600;28;20542;-73
2023/06/30 07:28:57;;;;;;;16.98;11.73;;;16.80;78.40;;;;;;4997404;28;20081;-73
2023/06/30 07:31:22;;;;;;;20.08;13.45;;;16.70;77.70;;;;;;5017074;28;20085;-73
2023/06/30 07:33:48;;;;;;;19.52;13.35;;;16.80;75.10;;;;;;4999723;28;20033;-73
2023/06/30 07:36:13;;;;;;;18.42;12.50;;;16.70;78.50;;;;;;5014164;28;20060;-73
2023/06/30 07:38:40;;;;;;;19.45;12.65;;;16.80;77.40;;;;;;4992264;28;20375;-73
2023/06/30 07:41:05;;;;;;;19.75;13.05;;;17.00;77.80;;;;;;5015632;28;20464;-73
2023/06/30 07:43:31;;;;;;;19.08;12.57;;;17.20;74.20;;;;;;5016877;28;20060;-73
2023/06/30 07:45:56;;;;;;;18.20;12.13;;;17.40;78.60;;;;;;5016696;28;20018;-73
2023/06/30 07:48:22;;;;;;;17.13;12.48;;;17.60;79.40;;;;;;5014184;28;20034;-73
2023/06/30 07:50:48;;;;;;;18.58;12.93;;;17.80;85.80;;;;;;4999833;28;20054;-73
2023/06/30 07:53:13;;;;;;;19.35;13.68;;;17.70;86.60;;;;;;5014927;28;20068;-73
2023/06/30 07:55:39;;;;;;;23.08;14.80;;;17.40;86.60;;;;;;5005537;28;20042;-72
2023/06/30 07:58:05;;;;;;;22.85;15.32;;;17.30;85.60;;;;;;5008906;28;20068;-73
2023/06/30 08:00:30;;;;;;;21.27;14.52;;;17.30;83.40;;;;;;5016295;28;20480;-73
2023/06/30 08:02:56;;;;;;;24.45;16.17;;;17.30;80.40;;;;;;5016629;28;20379;-73
2023/06/30 08:05:22;;;;;;;21.40;15.73;;;17.40;82.60;;;;;;5014411;28;20315;-73
2023/06/30 08:07:47;;;;;;;22.50;16.13;;;17.30;86.40;;;;;;5016457;28;20026;-73
2023/06/30 08:10:13;;;;;;;22.50;15.68;;;17.10;82.90;;;;;;4998142;28;20030;-72
2023/06/30 08:12:39;;;;;;;27.75;18.42;;;17.00;79.80;;;;;;5016397;28;20037;-73
2023/06/30 08:15:05;;;;;;;26.05;16.45;;;17.00;79.10;;;;;;5010670;28;20407;-73
2023/06/30 08:17:30;;;;;;;25.80;17.02;;;16.90;79.40;;;;;;4996612;28;20319;-73
2023/06/30 08:19:56;;;;;;;28.70;18.83;;;16.80;79.80;;;;;;5013375;28;20091;-73
2023/06/30 08:22:22;;;;;;;31.95;20.30;;;16.70;76.70;;;;;;5014278;28;20038;-73
2023/06/30 08:24:47;;;;;;;31.15;22.45;;;16.70;75.50;;;;;;5015133;28;20030;-73
2023/06/30 08:27:13;;;;;;;32.40;21.52;;;16.70;73.60;;;;;;5016053;28;20018;-73
2023/06/30 08:29:39;;;;;;;33.35;22.85;;;16.60;73.40;;;;;;4998593;28;20334;-73
2023/06/30 08:32:05;;;;;;;33.80;22.27;;;16.70;69.20;;;;;;5005710;28;20030;-73
2023/06/30 08:34:31;;;;;;;32.13;21.45;;;16.80;71.10;;;;;;4982982;28;20033;-73
2023/06/30 08:36:57;;;;;;;32.78;23.42;;;16.80;72.00;;;;;;5002676;28;20034;-72
2023/06/30 08:39:23;;;;;;;33.92;23.05;;;16.80;71.60;;;;;;5000281;28;20080;-73
2023/06/30 08:41:52;;;;;;;34.72;22.25;;;16.80;72.80;;;;;;5011380;28;20049;-73
2023/06/30 08:44:23;;;;;;;31.85;22.27;;;16.90;69.10;;;;;;5016050;28;20028;-73
2023/06/30 08:46:51;;;;;;;32.10;21.30;;;17.10;70.60;;;;;;5015141;28;20354;-73
2023/06/30 08:49:17;;;;;;;30.85;21.10;;;17.10;73.20;;;;;;4999992;28;20066;-73
2023/06/30 08:51:43;;;;;;;33.45;22.60;;;17.10;73.40;;;;;;4999171;28;20038;-73
2023/06/30 08:54:09;;;;;;;30.27;21.50;;;17.10;73.40;;;;;;5001873;28;20030;-73
2023/06/30 08:56:38;;;;;;;30.40;20.90;;;17.40;73.20;;;;;;5020012;28;20026;-73
2023/06/30 08:59:05;;;;;;;26.23;17.73;;;17.50;77.70;;;;;;5019522;28;20025;-73
2023/06/30 09:01:32;;;;;;;28.60;19.42;;;17.60;77.00;;;;;;5018529;28;20384;-73
2023/06/30 09:03:58;;;;;;;22.63;15.55;;;17.70;79.90;;;;;;5016028;28;20021;-73
2023/06/30 09:06:24;;;;;;;25.42;17.02;;;17.50;83.90;;;;;;5018575;28;20018;-73
2023/06/30 09:09:05;;;;;;;24.73;17.50;;;17.60;82.00;;;;;;5019689;28;20030;-73
2023/06/30 09:11:32;;;;;;;26.33;17.95;;;17.40;84.60;;;;;;5018034;28;20561;-73
2023/06/30 09:14:02;;;;;;;26.60;17.33;;;17.30;82.70;;;;;;5010033;28;20034;-73
2023/06/30 09:16:33;;;;;;;24.65;16.02;;;17.30;82.40;;;;;;5013899;28;20034;-73
2023/06/30 09:18:59;;;;;;;22.80;15.90;;;17.20;85.60;;;;;;5015593;28;20029;-73
2023/06/30 09:21:25;;;;;;;22.67;15.20;;;17.20;82.70;;;;;;5016986;28;20080;-73
2023/06/30 09:23:51;;;;;;;23.80;16.33;;;17.30;81.40;;;;;;5018412;28;20123;-73
2023/06/30 09:26:18;;;;;;;26.17;16.90;;;17.50;79.90;;;;;;5019340;28;20029;-73
2023/06/30 09:28:44;;;;;;;22.98;15.30;;;17.50;85.30;;;;;;5018752;28;20045;-74
2023/06/30 09:31:10;;;;;;;23.38;15.18;;;17.50;85.50;;;;;;5000768;28;20026;-74
2023/06/30 09:33:37;;;;;;;23.73;15.18;;;17.50;84.20;;;;;;5017590;28;20034;-73
2023/06/30 09:36:06;;;;;;;20.55;14.85;;;17.50;85.00;;;;;;5001851;28;20292;-74
2023/06/30 09:38:32;;;;;;;23.50;16.42;;;17.40;84.00;;;;;;4999514;28;20029;-73
2023/06/30 09:40:57;;;;;;;20.85;14.10;;;17.60;84.90;;;;;;5016672;28;20431;-73
2023/06/30 09:43:25;;;;;;;21.25;14.85;;;17.50;87.00;;;;;;5018253;28;20022;-73
2023/06/30 09:45:59;;;;;;;21.13;15.50;;;17.40;84.30;;;;;;5020390;28;20068;-73
2023/06/30 09:48:43;;;;;;;24.38;15.98;;;17.40;84.50;;;;;;5004357;28;20027;-73
2023/06/30 09:51:09;;;;;;;21.98;15.20;;;17.30;83.40;;;;;;5010651;28;20041;-73
2023/06/30 09:53:42;;;;;;;23.50;16.50;;;17.20;83.70;;;;;;5019025;28;20045;-72
2023/06/30 09:56:22;;;;;;;24.98;16.30;;;17.10;83.30;;;;;;5018899;28;20029;-73
2023/06/30 09:58:48;;;;;;;24.88;16.85;;;17.10;82.70;;;;;;5017790;28;20029;-73
2023/06/30 10:01:23;;;;;;;24.83;15.85;;;17.10;80.50;;;;;;4999293;28;20030;-72
2023/06/30 10:03:55;;;;;;;22.92;15.95;;;17.00;81.30;;;;;;5001966;28;20486;-73
2023/06/30 10:06:24;;;;;;;24.13;15.70;;;17.10;78.70;;;;;;5014163;28;20033;-72
2023/06/30 10:08:53;;;;;;;23.20;15.10;;;17.10;78.10;;;;;;5003779;28;20022;-72
2023/06/30 10:11:22;;;;;;;22.23;15.30;;;17.10;81.80;;;;;;5017174;28;20388;-72
2023/06/30 10:13:50;;;;;;;22.90;16.13;;;17.00;81.40;;;;;;5017036;28;20025;-72
2023/06/30 10:16:18;;;;;;;22.17;15.88;;;17.10;79.00;;;;;;5014225;28;20018;-74
2023/06/30 10:18:46;;;;;;;21.70;15.27;;;17.20;80.30;;;;;;5018318;28;20104;-74
2023/06/30 10:21:12;;;;;;;23.65;14.93;;;17.10;81.40;;;;;;5014811;28;20109;-73
2023/06/30 10:23:39;;;;;;;21.70;15.40;;;17.10;79.30;;;;;;5002951;28;20057;-73
2023/06/30 10:26:06;;;;;;;19.95;13.65;;;17.20;79.70;;;;;;5016939;28;20048;-74
2023/06/30 10:28:34;;;;;;;23.75;16.63;;;17.10;80.40;;;;;;5018340;28;20361;-73
2023/06/30 10:31:00;;;;;;;23.63;15.60;;;17.20;79.00;;;;;;5018231;28;20095;-73
2023/06/30 10:33:26;;;;;;;25.30;16.83;;;17.40;77.40;;;;;;5004725;28;20181;-73
2023/06/30 10:35:55;;;;;;;24.98;16.38;;;17.60;82.30;;;;;;4989736;28;20113;-73
2023/06/30 10:38:21;;;;;;;26.95;16.48;;;17.70;80.90;;;;;;4999534;28;20027;-73
2023/06/30 10:40:47;;;;;;;19.50;13.70;;;18.00;83.30;;;;;;5009083;28;20045;-73
2023/06/30 10:43:13;;;;;;;23.23;15.63;;;18.30;84.00;;;;;;5017983;28;20018;-73
2023/06/30 10:46:08;;;;;;;19.35;13.88;;;18.90;90.50;;;;;;5017933;28;20033;-73
2023/06/30 10:48:34;;;;;;;18.90;13.20;;;19.50;95.10;;;;;;5017783;28;20417;-74
2023/06/30 10:51:04;;;;;;;20.00;13.85;;;20.00;96.40;;;;;;5010454;28;20026;-73
2023/06/30 10:53:30;;;;;;;18.08;13.10;;;19.90;96.50;;;;;;4987884;28;20071;-73
2023/06/30 10:55:59;;;;;;;19.88;13.13;;;19.80;97.40;;;;;;5010226;28;20108;-73
2023/06/30 10:58:26;;;;;;;20.60;14.00;;;19.40;95.40;;;;;;5017663;28;20025;-73
2023/06/30 11:01:05;;;;;;;18.80;13.20;;;19.10;94.40;;;;;;5017631;28;20029;-73
2023/06/30 11:04:10;;;;;;;18.98;13.15;;;19.10;94.00;;;;;;5016710;28;20069;-74
2023/06/30 11:06:36;;;;;;;17.48;12.38;;;19.60;94.80;;;;;;5016436;28;20026;-73
2023/06/30 11:09:09;;;;;;;17.38;12.80;;;20.00;96.20;;;;;;5016301;28;20030;-74
2023/06/30 11:11:51;;;;;;;18.83;13.65;;;20.40;97.30;;;;;;5010551;28;20072;-73
2023/06/30 11:14:33;;;;;;;18.90;14.05;;;20.80;96.80;;;;;;5007937;28;20030;-74
2023/06/30 11:17:06;;;;;;;18.58;13.95;;;20.90;96.60;;;;;;4989580;28;20121;-74
2023/06/30 11:19:31;;;;;;;19.03;13.20;;;21.20;96.80;;;;;;5003702;28;20109;-74
2023/06/30 11:22:22;;;;;;;20.45;13.75;;;21.10;96.80;;;;;;4995741;28;20496;-74
2023/06/30 11:24:48;;;;;;;18.60;12.95;;;21.00;96.60;;;;;;5016335;28;20084;-74
2023/06/30 11:27:15;;;;;;;19.42;14.48;;;20.90;96.60;;;;;;5014944;28;20370;-74
2023/06/30 11:29:41;;;;;;;17.48;13.50;;;20.80;97.00;;;;;;5011937;28;20034;-73
2023/06/30 11:32:07;;;;;;;18.83;13.43;;;20.70;96.30;;;;;;4997465;28;20023;-74
2023/06/30 11:34:33;;;;;;;17.38;13.18;;;20.40;96.40;;;;;;4997424;28;20027;-74
2023/06/30 11:37:07;;;;;;;18.20;13.63;;;20.30;97.00;;;;;;4996242;28;20107;-73
2023/06/30 11:39:35;;;;;;;;;;;20.20;96.60;;;;;;5012135;28;20109;-74
2023/06/30 11:42:00;;;;;;;18.95;13.35;;;20.10;95.50;;;;;;5007779;28;19940;-74
2023/06/30 11:44:28;;;;;;;20.35;13.75;;;20.00;95.50;;;;;;5016951;28;20018;-74
2023/06/30 11:46:55;;;;;;;20.98;14.90;;;19.80;95.80;;;;;;5016440;28;20044;-74
2023/06/30 11:49:20;;;;;;;20.30;15.15;;;19.50;94.60;;;;;;5016666;28;20026;-75
2023/06/30 11:51:47;;;;;;;17.95;13.48;;;19.40;92.70;;;;;;5015540;28;20022;-74
2023/06/30 11:54:16;;;;;;;19.60;14.90;;;19.20;92.60;;;;;;5016199;28;20053;-74
2023/06/30 11:56:42;;;;;;;21.00;14.60;;;19.30;91.50;;;;;;5015008;28;20449;-74
2023/06/30 11:59:07;;;;;;;18.55;13.50;;;19.30;94.40;;;;;;5016673;28;20030;-73
2023/06/30 12:01:33;;;;;;;20.95;13.88;;;19.30;92.70;;;;;;5016343;28;20022;-74
2023/06/30 12:03:59;;;;;;;20.50;14.00;;;19.70;92.10;;;;;;5014172;28;20034;-73
2023/06/30 12:06:26;;;;;;;21.42;15.02;;;20.00;94.70;;;;;;4998078;28;20026;-74
2023/06/30 12:08:52;;;;;;;21.35;15.13;;;20.30;97.00;;;;;;5015533;28;20438;-74
2023/06/30 12:11:17;;;;;;;21.70;15.50;;;20.30;97.60;;;;;;5015626;28;20053;-74
2023/06/30 12:13:44;;;;;;;22.33;14.82;;;20.50;97.10;;;;;;5016491;28;20157;-74
2023/06/30 12:16:09;;;;;;;21.55;14.60;;;20.60;96.60;;;;;;5016358;28;20441;-74
2023/06/30 12:18:36;;;;;;;21.55;15.23;;;20.80;96.80;;;;;;5016238;28;20030;-74
2023/06/30 12:21:09;;;;;;;23.70;16.35;;;21.10;96.50;;;;;;5015051;28;20109;-77
2023/06/30 12:23:43;;;;;;;20.57;14.00;;;21.20;96.40;;;;;;5014486;28;20032;-74
2023/06/30 12:26:10;;;;;;;;;;;21.00;96.10;;;;;;5012995;28;20033;-74
2023/06/30 12:28:36;;;;;;;18.48;13.95;;;21.60;96.90;;;;;;4996612;28;19906;-74
2023/06/30 12:31:01;;;;;;;21.58;15.55;;;22.30;95.50;;;;;;4996520;28;20022;-74